Terminal Aerodrome Forecast
Issued by NWS

Home | Current Version | Previous Version | Text Only | Print | Product List | Glossary On
Versions: 1 2 3 4 5 6 7 8 9 10 11 12 13 14 15 16 17 18 19 20 21 22 23 24 25 26 27 28 29 30 31 32 33 34 35 36 37 38 39 40 41 42 43 44 45 46 47 48 49 50
000
FTUS45 KBOU 151740
TAFBJC
TAF
KBJC 151740Z 1518/1618 07007KT 1SM -SN BR BKN010 OVC015
     FM152000 08007KT 3SM -SN BR SCT010 OVC020
     FM152200 12007KT P6SM VCSH SCT014 OVC030
     FM160200 16006KT P6SM SCT040 SCT120
     FM160500 24006KT P6SM SCT220=

USA.gov is the U.S. government's official web portal to all federal, state and local government web resources and services.